createdAt,value
2019-03-31T00:01:50.089Z,90.90
2019-03-31T00:04:22.259Z,90.90
2019-03-31T00:06:54.234Z,91.00
2019-03-31T00:09:26.106Z,91.00
2019-03-31T00:11:57.869Z,91.10
2019-03-31T00:15:24.800Z,91.00
2019-03-31T00:17:56.755Z,91.00
2019-03-31T00:20:28.642Z,91.00
2019-03-31T00:23:00.191Z,91.00
2019-03-31T00:25:32.245Z,91.00
2019-03-31T00:28:04.140Z,90.90
2019-03-31T00:30:36.300Z,90.80
2019-03-31T00:33:08.249Z,90.90
2019-03-31T00:35:40.108Z,90.70
2019-03-31T00:38:11.901Z,90.60
2019-03-31T00:40:43.735Z,90.70
2019-03-31T00:43:17.357Z,90.50
2019-03-31T00:45:49.395Z,90.30
2019-03-31T00:48:21.264Z,90.10
2019-03-31T00:50:53.019Z,90.00
2019-03-31T00:53:24.671Z,90.00
2019-03-31T00:55:56.537Z,89.90
2019-03-31T00:58:28.293Z,89.70
2019-03-31T01:01:03.331Z,89.60
2019-03-31T01:03:36.296Z,88.90
2019-03-31T01:06:08.393Z,88.40
2019-03-31T01:08:40.164Z,88.30
2019-03-31T01:11:14.577Z,88.00
2019-03-31T01:13:46.837Z,87.90
2019-03-31T01:16:19.030Z,88.10
2019-03-31T01:18:50.961Z,88.00
2019-03-31T01:21:22.869Z,87.80
2019-03-31T01:23:54.668Z,87.10
2019-03-31T01:26:26.696Z,86.70
2019-03-31T01:28:59.117Z,87.00
2019-03-31T01:31:32.227Z,86.70
2019-03-31T01:34:03.950Z,86.70
2019-03-31T01:36:35.863Z,86.80
2019-03-31T01:39:09.779Z,86.90
2019-03-31T01:41:41.923Z,86.70
2019-03-31T01:44:17.064Z,87.50
2019-03-31T01:46:49.029Z,87.20
2019-03-31T01:49:20.599Z,86.50
2019-03-31T01:51:52.358Z,86.50
2019-03-31T01:54:24.106Z,86.10
2019-03-31T01:56:55.790Z,85.10
2019-03-31T01:59:28.139Z,85.10
2019-03-31T02:02:04.563Z,85.10
2019-03-31T02:04:33.413Z,85.40
2019-03-31T02:07:05.566Z,85.10
2019-03-31T02:09:37.446Z,85.20
2019-03-31T02:12:09.080Z,85.00
2019-03-31T02:14:41.459Z,84.00
2019-03-31T02:17:13.627Z,84.10
2019-03-31T02:19:45.898Z,82.80
2019-03-31T02:22:17.692Z,82.90
2019-03-31T02:24:49.347Z,82.80
2019-03-31T02:27:21.300Z,82.80
2019-03-31T02:29:53.123Z,82.40
2019-03-31T02:32:25.319Z,81.50
2019-03-31T02:34:57.093Z,82.00
2019-03-31T02:37:28.948Z,82.60
2019-03-31T02:40:00.911Z,81.30
2019-03-31T02:42:32.663Z,79.90
2019-03-31T02:45:04.721Z,81.20
2019-03-31T02:47:37.098Z,81.10
2019-03-31T02:50:09.800Z,80.40
2019-03-31T02:52:41.744Z,80.40
2019-03-31T02:55:13.411Z,80.30
2019-03-31T02:57:46.228Z,80.50
2019-03-31T03:00:17.854Z,79.60
2019-03-31T03:02:49.791Z,79.50
2019-03-31T03:05:22.962Z,78.40
2019-03-31T03:08:14.505Z,79.80
2019-03-31T03:11:06.598Z,80.40
2019-03-31T03:13:39.742Z,80.10
2019-03-31T03:16:16.832Z,79.10
2019-03-31T03:18:49.004Z,78.70
2019-03-31T03:21:24.059Z,78.10
2019-03-31T03:23:54.162Z,77.70
2019-03-31T03:26:25.936Z,77.70
2019-03-31T03:28:57.988Z,76.50
2019-03-31T03:31:30.357Z,76.80
2019-03-31T03:34:03.053Z,76.50
2019-03-31T03:36:34.831Z,76.50
2019-03-31T03:39:07.874Z,76.40
2019-03-31T03:41:39.746Z,76.50
2019-03-31T03:44:11.345Z,76.90
2019-03-31T03:46:43.520Z,77.30
2019-03-31T03:49:15.738Z,77.00
2019-03-31T03:51:48.427Z,76.80
2019-03-31T03:54:20.218Z,76.50
2019-03-31T03:56:51.974Z,76.70
2019-03-31T03:59:23.927Z,76.70
2019-03-31T04:01:55.474Z,77.40
2019-03-31T04:04:27.149Z,77.90
2019-03-31T04:06:59.085Z,76.80
2019-03-31T04:09:30.661Z,76.70
2019-03-31T04:12:01.910Z,75.90
2019-03-31T04:14:33.773Z,76.60
2019-03-31T04:17:05.922Z,76.10
2019-03-31T04:19:38.294Z,76.50
2019-03-31T04:22:10.082Z,76.30
2019-03-31T04:24:41.916Z,75.60
2019-03-31T04:27:13.622Z,76.10
2019-03-31T04:29:45.445Z,76.40
2019-03-31T04:32:38.707Z,75.40
2019-03-31T04:35:11.074Z,75.60
2019-03-31T04:37:43.058Z,75.40
2019-03-31T04:40:14.899Z,75.20
2019-03-31T04:42:47.906Z,74.90
2019-03-31T04:45:21.425Z,75.10
2019-03-31T04:47:53.794Z,74.50
2019-03-31T04:50:25.725Z,73.60
2019-03-31T04:52:57.306Z,73.60
2019-03-31T04:55:29.756Z,73.20
2019-03-31T04:58:01.535Z,74.40
2019-03-31T05:00:33.399Z,74.30
2019-03-31T05:03:05.253Z,73.70
2019-03-31T05:05:37.735Z,73.70
2019-03-31T05:08:09.479Z,73.00
2019-03-31T05:10:41.175Z,72.80
2019-03-31T05:13:15.552Z,73.80
2019-03-31T05:15:47.535Z,72.70
2019-03-31T05:18:19.084Z,72.40
2019-03-31T05:20:50.865Z,71.70
2019-03-31T05:23:22.700Z,71.50
2019-03-31T05:25:54.281Z,71.80
2019-03-31T05:28:26.519Z,71.30
2019-03-31T05:30:58.693Z,71.50
2019-03-31T05:33:30.584Z,71.90
2019-03-31T05:36:02.952Z,71.60
2019-03-31T05:38:34.797Z,71.80
2019-03-31T05:41:06.565Z,72.10
2019-03-31T05:43:38.885Z,71.90
2019-03-31T05:46:10.607Z,71.90
2019-03-31T05:48:43.585Z,72.70
2019-03-31T05:51:15.556Z,73.10
2019-03-31T05:53:47.266Z,71.00
2019-03-31T05:56:19.159Z,71.20
2019-03-31T05:58:51.730Z,70.90
2019-03-31T06:01:43.455Z,70.80
2019-03-31T06:04:15.435Z,70.40
2019-03-31T06:06:47.181Z,70.10
2019-03-31T06:09:18.858Z,70.40
2019-03-31T06:11:53.190Z,70.40
2019-03-31T06:14:25.018Z,68.90
2019-03-31T06:16:57.087Z,68.60
2019-03-31T06:19:30.799Z,69.20
2019-03-31T06:22:02.665Z,69.70
2019-03-31T06:24:34.416Z,68.80
2019-03-31T06:27:08.357Z,68.20
2019-03-31T06:29:40.002Z,68.50
2019-03-31T06:32:12.046Z,68.10
2019-03-31T06:34:47.835Z,68.00
2019-03-31T06:37:17.529Z,66.00
2019-03-31T06:39:50.535Z,66.50
2019-03-31T06:42:22.874Z,65.50
2019-03-31T06:44:55.042Z,67.50
2019-03-31T06:47:27.018Z,67.10
2019-03-31T06:49:58.994Z,66.50
2019-03-31T06:52:30.937Z,66.40
2019-03-31T06:55:02.603Z,66.10
2019-03-31T06:57:34.488Z,65.50
2019-03-31T07:00:07.531Z,65.20
2019-03-31T07:02:39.272Z,63.60
2019-03-31T07:05:11.377Z,63.80
2019-03-31T07:07:43.247Z,62.90
2019-03-31T07:10:15.008Z,63.90
2019-03-31T07:12:46.674Z,64.80
2019-03-31T07:15:18.706Z,63.80
2019-03-31T07:17:50.316Z,64.10
2019-03-31T07:20:22.073Z,64.70
2019-03-31T07:22:54.011Z,65.30
2019-03-31T07:25:25.660Z,65.50
2019-03-31T07:27:57.823Z,66.70
2019-03-31T07:30:29.785Z,66.70
2019-03-31T07:33:01.256Z,66.70
2019-03-31T07:35:33.097Z,66.10
2019-03-31T07:38:05.194Z,65.10
2019-03-31T07:40:38.232Z,65.30
2019-03-31T07:43:10.070Z,66.30
2019-03-31T07:45:41.874Z,66.20
2019-03-31T07:48:13.468Z,65.20
2019-03-31T07:50:47.041Z,64.40
2019-03-31T07:53:18.714Z,65.20
2019-03-31T07:55:50.764Z,66.10
2019-03-31T07:58:22.486Z,66.30
2019-03-31T08:00:55.289Z,66.70
2019-03-31T08:03:28.980Z,66.80
2019-03-31T08:06:00.710Z,66.80
2019-03-31T08:08:32.844Z,66.60
2019-03-31T08:11:06.930Z,66.50
2019-03-31T08:13:39.537Z,67.20
2019-03-31T08:16:14.136Z,66.80
2019-03-31T08:18:45.893Z,67.90
2019-03-31T08:21:17.683Z,68.60
2019-03-31T08:23:49.340Z,69.20
2019-03-31T08:26:22.935Z,68.80
2019-03-31T08:28:54.607Z,70.30
2019-03-31T08:31:26.860Z,69.80
2019-03-31T08:33:59.027Z,69.90
2019-03-31T08:36:30.877Z,69.10
2019-03-31T08:39:03.227Z,69.70
2019-03-31T08:41:36.357Z,70.60
2019-03-31T08:44:08.955Z,71.10
2019-03-31T08:46:40.693Z,71.00
2019-03-31T08:49:13.104Z,72.10
2019-03-31T08:51:45.850Z,71.10
2019-03-31T08:54:17.633Z,71.20
2019-03-31T08:56:49.509Z,70.60
2019-03-31T08:59:40.992Z,71.00
2019-03-31T09:02:32.665Z,70.70
2019-03-31T09:05:04.741Z,69.50
2019-03-31T09:07:37.059Z,70.70
2019-03-31T09:10:14.761Z,71.50
2019-03-31T09:12:48.481Z,71.30
2019-03-31T09:15:19.717Z,72.00
2019-03-31T09:17:54.228Z,72.20
2019-03-31T09:20:28.602Z,72.00
2019-03-31T09:23:01.662Z,71.70
2019-03-31T09:25:33.709Z,71.90
2019-03-31T09:28:06.205Z,72.40
2019-03-31T09:30:37.763Z,72.60
2019-03-31T09:33:09.912Z,72.60
2019-03-31T09:35:42.286Z,72.30
2019-03-31T09:38:13.967Z,71.90
2019-03-31T09:41:08.303Z,72.50
2019-03-31T09:43:41.106Z,72.20
2019-03-31T09:46:12.989Z,72.20
2019-03-31T09:48:44.738Z,72.80
2019-03-31T09:51:16.311Z,72.70
2019-03-31T09:53:50.040Z,71.90
2019-03-31T09:56:21.780Z,72.10
2019-03-31T09:58:54.684Z,72.20
2019-03-31T10:01:26.531Z,71.70
2019-03-31T10:03:58.674Z,71.10
2019-03-31T10:06:32.643Z,71.20
2019-03-31T10:09:04.699Z,71.40
2019-03-31T10:11:36.511Z,71.70
2019-03-31T10:14:08.282Z,72.20
2019-03-31T10:16:40.021Z,72.60
2019-03-31T10:19:11.805Z,72.50
2019-03-31T10:21:44.178Z,73.00
2019-03-31T10:27:56.804Z,73.80
2019-03-31T10:30:33.187Z,73.40
2019-03-31T10:33:05.040Z,73.90
2019-03-31T10:35:36.711Z,74.00
2019-03-31T10:38:08.961Z,73.20
2019-03-31T10:40:41.128Z,73.30
2019-03-31T10:43:13.426Z,72.00
2019-03-31T10:45:45.366Z,68.00
2019-03-31T10:48:21.058Z,66.70
2019-03-31T10:50:50.228Z,66.30
2019-03-31T10:53:21.974Z,66.20
2019-03-31T10:55:54.750Z,65.50
2019-03-31T10:58:26.727Z,66.40
2019-03-31T11:01:18.020Z,66.90
2019-03-31T11:03:50.313Z,67.60
2019-03-31T11:06:22.071Z,67.40
2019-03-31T11:08:53.829Z,67.50
2019-03-31T11:11:27.005Z,67.50
2019-03-31T11:13:58.695Z,66.50
2019-03-31T11:16:30.421Z,67.50
2019-03-31T11:19:02.314Z,66.40
2019-03-31T11:21:35.337Z,67.10
2019-03-31T11:24:08.598Z,67.60
2019-03-31T11:26:42.090Z,67.70
2019-03-31T11:29:14.036Z,68.10
2019-03-31T11:31:45.916Z,67.80
2019-03-31T11:34:19.706Z,67.40
2019-03-31T11:36:57.522Z,66.80
2019-03-31T11:39:29.415Z,67.20
2019-03-31T11:42:01.339Z,67.80
2019-03-31T11:44:33.459Z,68.30
2019-03-31T11:47:05.187Z,69.10
2019-03-31T11:49:36.847Z,69.00
2019-03-31T11:52:08.754Z,69.10
2019-03-31T11:55:00.432Z,68.80
2019-03-31T11:57:32.618Z,68.70
2019-03-31T12:00:04.463Z,68.80
2019-03-31T12:02:36.136Z,69.50
2019-03-31T12:05:11.801Z,69.60
2019-03-31T12:07:47.188Z,69.40
2019-03-31T12:10:15.810Z,69.40
2019-03-31T12:12:47.653Z,69.40
2019-03-31T12:15:19.495Z,69.70
2019-03-31T12:17:51.444Z,69.20
2019-03-31T12:20:23.051Z,69.50
2019-03-31T12:22:55.097Z,69.70
2019-03-31T12:25:27.267Z,69.90
2019-03-31T12:28:00.560Z,69.90
2019-03-31T12:30:33.743Z,69.90
2019-03-31T12:33:05.435Z,70.00
2019-03-31T12:35:37.476Z,70.00
2019-03-31T12:38:09.447Z,70.10
2019-03-31T12:40:42.636Z,70.20
2019-03-31T12:43:17.357Z,70.30
2019-03-31T12:45:50.824Z,70.40
2019-03-31T12:48:22.831Z,70.50
2019-03-31T12:50:54.589Z,70.60
2019-03-31T12:53:26.483Z,71.00
2019-03-31T12:56:00.352Z,71.10
2019-03-31T12:58:32.268Z,71.00
2019-03-31T13:01:06.357Z,70.60
2019-03-31T13:03:38.952Z,70.90
2019-03-31T13:06:17.431Z,70.40
2019-03-31T13:08:50.327Z,69.40
2019-03-31T13:11:57.104Z,68.80
2019-03-31T13:14:31.383Z,68.80
2019-03-31T13:17:07.219Z,69.70
2019-03-31T13:19:39.271Z,69.10
2019-03-31T13:22:12.371Z,69.00
2019-03-31T13:24:44.303Z,68.60
2019-03-31T13:27:18.674Z,68.80
2019-03-31T13:29:50.162Z,68.90
2019-03-31T13:32:21.928Z,69.20
2019-03-31T13:34:54.748Z,69.60
2019-03-31T13:37:26.671Z,69.70
2019-03-31T13:39:59.869Z,70.20
2019-03-31T13:42:36.568Z,70.20
2019-03-31T13:45:09.349Z,70.20
2019-03-31T13:47:41.437Z,70.60
2019-03-31T13:50:14.914Z,70.70
2019-03-31T13:53:07.114Z,70.80
2019-03-31T13:55:39.891Z,70.50
2019-03-31T13:58:13.892Z,70.80
2019-03-31T14:00:46.622Z,71.00
2019-03-31T14:03:20.637Z,71.20
2019-03-31T14:05:52.304Z,72.70
2019-03-31T14:08:26.249Z,71.90
2019-03-31T14:10:58.188Z,71.50
2019-03-31T14:13:56.166Z,70.70
2019-03-31T14:16:29.657Z,69.90
2019-03-31T14:19:01.537Z,69.30
2019-03-31T14:21:34.715Z,68.50
2019-03-31T14:24:16.881Z,68.10
2019-03-31T14:26:49.588Z,67.40
2019-03-31T14:29:23.087Z,67.10
2019-03-31T14:31:55.053Z,67.30
2019-03-31T14:34:26.602Z,68.00
2019-03-31T14:36:58.262Z,67.00
2019-03-31T14:39:31.152Z,67.10
2019-03-31T14:42:17.350Z,67.30
2019-03-31T14:44:49.112Z,67.50
2019-03-31T14:47:20.970Z,68.00
2019-03-31T14:52:42.115Z,68.50
2019-03-31T14:55:14.781Z,68.70
2019-03-31T14:57:46.574Z,69.10
2019-03-31T15:00:18.257Z,69.50
2019-03-31T15:02:50.758Z,69.50
2019-03-31T15:05:23.724Z,69.80
2019-03-31T15:07:58.332Z,70.10
2019-03-31T15:10:29.380Z,70.20
2019-03-31T15:13:02.422Z,70.50
2019-03-31T15:15:35.175Z,70.90
2019-03-31T15:18:06.969Z,71.30
2019-03-31T15:20:40.643Z,71.70
2019-03-31T15:23:13.289Z,72.10
2019-03-31T15:25:45.816Z,72.70
2019-03-31T15:28:40.626Z,73.10
2019-03-31T15:31:13.226Z,73.30
2019-03-31T15:33:44.879Z,73.50
2019-03-31T15:36:16.597Z,73.50
2019-03-31T15:38:49.495Z,73.70
2019-03-31T15:41:21.612Z,73.80
2019-03-31T15:43:57.272Z,74.00
2019-03-31T15:46:30.454Z,74.20
2019-03-31T15:49:04.872Z,74.30
2019-03-31T15:52:04.463Z,74.30
2019-03-31T15:55:06.735Z,74.20
2019-03-31T15:57:46.636Z,74.50
2019-03-31T16:00:23.011Z,74.80
2019-03-31T16:03:08.862Z,74.80
2019-03-31T16:06:22.975Z,75.00
2019-03-31T16:11:53.986Z,75.30
2019-03-31T16:14:25.144Z,75.80
2019-03-31T16:17:00.671Z,76.60
2019-03-31T16:19:48.423Z,75.70
2019-03-31T16:22:42.073Z,76.00
2019-03-31T16:25:19.987Z,76.10
2019-03-31T16:28:02.818Z,75.90
2019-03-31T16:30:34.235Z,76.00
2019-03-31T16:33:32.815Z,76.50
2019-03-31T16:38:45.006Z,76.50
2019-03-31T16:41:16.617Z,76.50
2019-03-31T16:43:48.562Z,76.50
2019-03-31T16:46:23.099Z,76.60
2019-03-31T16:48:56.135Z,76.70
2019-03-31T16:51:27.731Z,76.80
2019-03-31T16:54:00.344Z,76.40
2019-03-31T16:56:32.241Z,76.20
2019-03-31T16:59:04.098Z,76.20
2019-03-31T17:01:35.770Z,76.50
2019-03-31T17:04:07.633Z,76.30
2019-03-31T17:06:40.760Z,76.00
2019-03-31T17:09:12.487Z,76.10
2019-03-31T17:11:44.037Z,76.10
2019-03-31T17:17:44.592Z,76.00
2019-03-31T17:20:16.911Z,76.30
2019-03-31T17:22:48.739Z,77.10
2019-03-31T17:25:20.708Z,77.30
2019-03-31T17:27:52.548Z,77.30
2019-03-31T17:30:24.405Z,77.50
2019-03-31T17:32:56.084Z,77.70
2019-03-31T17:35:28.447Z,77.40
2019-03-31T17:38:00.209Z,77.40
2019-03-31T17:40:31.990Z,77.40
2019-03-31T17:43:04.683Z,77.40
2019-03-31T17:45:36.515Z,77.40
2019-03-31T17:48:08.073Z,77.50
2019-03-31T17:50:39.737Z,77.30
2019-03-31T17:53:11.585Z,77.20
2019-03-31T17:55:43.667Z,77.20
2019-03-31T17:58:15.622Z,77.20
2019-03-31T18:00:47.372Z,77.50
2019-03-31T18:03:19.243Z,77.50
2019-03-31T18:05:51.200Z,77.70
2019-03-31T18:08:23.050Z,78.00
2019-03-31T18:10:54.804Z,78.10
2019-03-31T18:13:26.688Z,78.20
2019-03-31T18:16:18.398Z,78.50
2019-03-31T18:18:50.193Z,78.70
2019-03-31T18:21:41.948Z,78.80
2019-03-31T18:24:24.513Z,79.20
2019-03-31T18:26:56.078Z,79.30
2019-03-31T18:29:46.564Z,79.50
2019-03-31T18:32:18.344Z,79.70
2019-03-31T18:34:50.115Z,80.30
2019-03-31T18:37:21.825Z,80.50
2019-03-31T18:39:53.530Z,80.70
2019-03-31T18:42:25.303Z,80.60
2019-03-31T18:44:57.126Z,80.70
2019-03-31T18:47:29.066Z,80.50
2019-03-31T18:50:00.770Z,80.70
2019-03-31T18:52:32.714Z,80.60
2019-03-31T18:55:17.812Z,80.50
2019-03-31T19:00:50.284Z,81.30
2019-03-31T19:03:38.791Z,81.90
2019-03-31T19:06:28.413Z,81.80
2019-03-31T19:09:18.628Z,81.90
2019-03-31T19:11:57.846Z,82.00
2019-03-31T19:14:40.456Z,81.80
2019-03-31T19:17:13.583Z,81.50
2019-03-31T19:19:47.143Z,81.50
2019-03-31T19:22:58.450Z,81.50
2019-03-31T19:25:31.357Z,81.50
2019-03-31T19:28:04.725Z,81.70
2019-03-31T19:30:40.818Z,82.10
2019-03-31T19:33:23.398Z,82.00
2019-03-31T19:35:59.835Z,82.00
2019-03-31T19:38:49.138Z,82.00
2019-03-31T19:41:22.640Z,82.40
2019-03-31T19:47:05.798Z,82.60
2019-03-31T19:49:42.056Z,82.70
2019-03-31T19:52:24.315Z,82.40
2019-03-31T19:55:14.350Z,82.10
2019-03-31T20:00:43.671Z,81.40
2019-03-31T20:03:16.992Z,81.00
2019-03-31T20:05:52.753Z,81.10
2019-03-31T20:08:35.155Z,80.90
2019-03-31T20:11:17.345Z,80.10
2019-03-31T20:14:16.534Z,79.50
2019-03-31T20:17:07.603Z,80.20
2019-03-31T20:19:47.395Z,79.40
2019-03-31T20:22:20.513Z,79.40
2019-03-31T20:24:54.091Z,78.90
2019-03-31T20:27:27.094Z,79.30
2019-03-31T20:30:03.183Z,78.90
2019-03-31T20:32:52.513Z,78.70
2019-03-31T20:35:28.598Z,79.00
2019-03-31T20:38:14.261Z,79.40
2019-03-31T20:40:47.456Z,79.20
2019-03-31T20:43:30.170Z,79.10
2019-03-31T20:46:04.303Z,79.30
2019-03-31T20:48:35.123Z,79.10
2019-03-31T20:51:06.905Z,79.30
2019-03-31T20:53:38.640Z,79.30
2019-03-31T20:56:10.304Z,79.30
2019-03-31T20:58:41.944Z,79.20
2019-03-31T21:01:13.919Z,79.40
2019-03-31T21:04:01.625Z,79.20
2019-03-31T21:06:33.402Z,79.10
2019-03-31T21:09:06.268Z,79.00
2019-03-31T21:11:38.378Z,78.70
2019-03-31T21:14:10.536Z,78.70
2019-03-31T21:16:42.682Z,78.80
2019-03-31T21:19:14.245Z,79.00
2019-03-31T21:21:45.796Z,79.10
2019-03-31T21:24:17.481Z,79.00
2019-03-31T21:26:49.128Z,79.00
2019-03-31T21:29:20.783Z,79.00
2019-03-31T21:31:52.453Z,78.90
2019-03-31T21:34:24.404Z,78.90
2019-03-31T21:36:56.275Z,79.10
2019-03-31T21:39:28.142Z,79.40
2019-03-31T21:41:59.798Z,79.60
2019-03-31T21:44:31.667Z,79.70
2019-03-31T21:47:03.304Z,80.10
2019-03-31T21:49:35.372Z,80.40
2019-03-31T21:52:07.361Z,80.50
2019-03-31T21:54:51.794Z,80.50
2019-03-31T21:57:23.475Z,80.40
2019-03-31T21:59:55.305Z,80.50
2019-03-31T22:02:27.201Z,80.80
2019-03-31T22:04:59.155Z,80.80
2019-03-31T22:07:30.814Z,80.70
2019-03-31T22:10:02.366Z,81.00
2019-03-31T22:12:34.538Z,80.60
2019-03-31T22:15:06.897Z,80.30
2019-03-31T22:17:38.875Z,80.20
2019-03-31T22:20:11.026Z,80.50
2019-03-31T22:22:43.411Z,80.70
2019-03-31T22:25:15.369Z,80.70
2019-03-31T22:27:47.240Z,80.80
2019-03-31T22:30:18.903Z,81.00
2019-03-31T22:32:50.756Z,80.80
2019-03-31T22:35:22.593Z,81.00
2019-03-31T22:37:54.365Z,81.00
2019-03-31T22:40:26.625Z,80.90
2019-03-31T22:42:58.683Z,80.70
2019-03-31T22:45:30.965Z,80.40
2019-03-31T22:48:02.928Z,80.50
2019-03-31T22:50:34.704Z,80.50
2019-03-31T22:53:06.446Z,80.70
2019-03-31T22:55:58.210Z,80.70
2019-03-31T23:01:46.144Z,81.20
2019-03-31T23:04:26.008Z,81.60
2019-03-31T23:06:58.178Z,81.50
2019-03-31T23:09:29.962Z,81.90
2019-03-31T23:12:02.085Z,82.00
2019-03-31T23:14:40.094Z,82.20
2019-03-31T23:17:13.027Z,82.20
2019-03-31T23:19:44.862Z,82.30
2019-03-31T23:22:16.641Z,82.50
2019-03-31T23:24:48.860Z,82.80
2019-03-31T23:27:25.740Z,82.90
2019-03-31T23:29:57.628Z,82.80
2019-03-31T23:32:29.267Z,82.80
2019-03-31T23:35:01.047Z,83.50
2019-03-31T23:37:32.777Z,82.60
2019-03-31T23:40:04.377Z,82.70
2019-03-31T23:42:36.218Z,83.10
2019-03-31T23:45:09.496Z,84.00
2019-03-31T23:47:41.274Z,83.10
2019-03-31T23:50:13.125Z,83.40
2019-03-31T23:52:44.982Z,83.00
2019-03-31T23:55:17.150Z,82.50
2019-03-31T23:57:49.114Z,82.10
